createdAt,value
2022-08-03T00:01:40.507Z,100794.54
2022-08-03T00:04:10.163Z,100794.14
2022-08-03T00:06:38.263Z,100795.98
2022-08-03T00:09:06.506Z,100798.34
2022-08-03T00:11:34.685Z,100798.91
2022-08-03T00:14:05.006Z,100800.39
2022-08-03T00:16:33.164Z,100792.05
2022-08-03T00:19:02.445Z,100796.75
2022-08-03T00:21:31.582Z,100797.59
2022-08-03T00:23:59.381Z,100796.79
2022-08-03T00:26:27.158Z,100798.38
2022-08-03T00:28:54.921Z,100791.36
2022-08-03T00:31:45.004Z,100793.33
2022-08-03T00:34:10.688Z,100797.80
2022-08-03T00:36:40.448Z,100795.17
2022-08-03T00:39:08.567Z,100793.49
2022-08-03T00:41:36.478Z,100791.28
2022-08-03T00:44:04.656Z,100792.27
2022-08-03T00:46:32.509Z,100782.55
2022-08-03T00:49:00.449Z,100790.17
2022-08-03T00:51:28.223Z,100789.72
2022-08-03T00:53:55.988Z,100787.93
2022-08-03T00:56:23.865Z,100787.20
2022-08-03T00:58:52.782Z,100785.00
2022-08-03T01:01:20.665Z,100782.02
2022-08-03T01:03:48.470Z,100786.52
2022-08-03T01:06:29.133Z,100784.79
2022-08-03T01:09:16.646Z,100782.34
2022-08-03T01:11:59.852Z,100782.81
2022-08-03T01:14:44.539Z,100782.42
2022-08-03T01:17:22.948Z,100776.14
2022-08-03T01:20:08.036Z,100774.05
2022-08-03T01:23:01.027Z,100772.15
2022-08-03T01:25:55.267Z,100771.77
2022-08-03T01:29:01.471Z,100770.62
2022-08-03T01:32:53.268Z,100771.20
2022-08-03T01:35:04.948Z,100767.23
2022-08-03T01:37:42.314Z,100764.73
2022-08-03T01:40:13.370Z,100766.95
2022-08-03T01:42:44.633Z,100765.77
2022-08-03T01:45:15.400Z,100763.48
2022-08-03T01:47:45.683Z,100764.36
2022-08-03T01:50:15.189Z,100761.30
2022-08-03T01:52:49.010Z,100757.47
2022-08-03T01:55:20.425Z,100756.88
2022-08-03T01:58:05.201Z,100756.23
2022-08-03T02:00:38.871Z,100759.23
2022-08-03T02:03:08.425Z,100761.55
2022-08-03T02:05:39.533Z,100760.45
2022-08-03T02:08:12.871Z,100762.63
2022-08-03T02:10:46.119Z,100755.52
2022-08-03T02:13:15.590Z,100753.73
2022-08-03T02:15:44.840Z,100753.32
2022-08-03T02:18:13.915Z,100750.62
2022-08-03T02:20:43.481Z,100741.55
2022-08-03T02:23:11.424Z,100741.33
2022-08-03T02:25:44.774Z,100742.64
2022-08-03T02:28:20.758Z,100742.90
2022-08-03T02:30:54.792Z,100742.35
2022-08-03T02:33:38.859Z,100744.34
2022-08-03T02:36:08.567Z,100740.96
2022-08-03T02:38:41.273Z,100736.33
2022-08-03T02:41:13.701Z,100739.09
2022-08-03T02:44:06.145Z,100738.78
2022-08-03T02:46:38.643Z,100735.02
2022-08-03T02:49:41.421Z,100736.15
2022-08-03T02:51:56.530Z,100739.77
2022-08-03T02:54:26.926Z,100738.72
2022-08-03T02:56:58.566Z,100734.13
2022-08-03T02:59:31.139Z,100730.52
2022-08-03T03:02:00.261Z,100735.59
2022-08-03T03:04:32.947Z,100736.55
2022-08-03T03:07:04.594Z,100737.22
2022-08-03T03:09:41.620Z,100731.50
2022-08-03T03:12:13.737Z,100739.41
2022-08-03T03:14:41.795Z,100741.48
2022-08-03T03:17:11.751Z,100741.28
2022-08-03T03:19:41.480Z,100742.27
2022-08-03T03:22:10.758Z,100740.39
2022-08-03T03:24:41.615Z,100743.52
2022-08-03T03:27:10.217Z,100745.36
2022-08-03T03:29:44.937Z,100743.45
2022-08-03T03:32:13.358Z,100743.38
2022-08-03T03:34:42.728Z,100737.91
2022-08-03T03:37:12.325Z,100740.65
2022-08-03T03:39:40.107Z,100742.02
2022-08-03T03:42:08.103Z,100744.38
2022-08-03T03:44:36.019Z,100744.80
2022-08-03T03:47:03.975Z,100749.55
2022-08-03T03:49:32.659Z,100749.81
2022-08-03T03:52:00.514Z,100751.59
2022-08-03T03:54:43.772Z,100755.70
2022-08-03T03:57:13.715Z,100757.70
2022-08-03T03:59:42.751Z,100752.04
2022-08-03T04:02:12.090Z,100755.98
2022-08-03T04:04:58.619Z,100755.40
2022-08-03T04:07:46.497Z,100759.61
2022-08-03T04:10:39.896Z,100758.30
2022-08-03T04:13:12.133Z,100761.84
2022-08-03T04:15:41.402Z,100765.49
2022-08-03T04:18:13.871Z,100772.25
2022-08-03T04:20:47.628Z,100771.25
2022-08-03T04:23:21.100Z,100775.88
2022-08-03T04:25:51.672Z,100775.09
2022-08-03T04:28:30.686Z,100777.95
2022-08-03T04:31:03.189Z,100773.48
2022-08-03T04:33:37.125Z,100777.12
2022-08-03T04:36:10.844Z,100776.81
2022-08-03T04:38:51.478Z,100775.26
2022-08-03T04:41:22.834Z,100774.19
2022-08-03T04:43:53.790Z,100774.78
2022-08-03T04:46:25.322Z,100778.09
2022-08-03T04:48:54.201Z,100778.08
2022-08-03T04:51:22.909Z,100778.72
2022-08-03T04:53:50.864Z,100777.42
2022-08-03T04:56:19.096Z,100774.10
2022-08-03T04:58:46.982Z,100773.75
2022-08-03T05:01:16.449Z,100773.09
2022-08-03T05:03:44.326Z,100769.70
2022-08-03T05:06:12.608Z,100772.46
2022-08-03T05:08:47.227Z,100769.67
2022-08-03T05:11:19.471Z,100771.17
2022-08-03T05:13:48.049Z,100769.36
2022-08-03T05:16:15.779Z,100768.81
2022-08-03T05:18:43.573Z,100767.27
2022-08-03T05:21:14.505Z,100768.31
2022-08-03T05:23:43.956Z,100777.54
2022-08-03T05:26:12.037Z,100781.67
2022-08-03T05:28:40.137Z,100783.02
2022-08-03T05:31:19.770Z,100786.11
2022-08-03T05:33:48.951Z,100790.31
2022-08-03T05:36:16.864Z,100790.71
2022-08-03T05:38:44.804Z,100794.89
2022-08-03T05:41:21.658Z,100796.30
2022-08-03T05:43:55.459Z,100790.16
2022-08-03T05:46:23.758Z,100786.55
2022-08-03T05:48:52.338Z,100791.73
2022-08-03T05:51:21.979Z,100793.46
2022-08-03T05:53:49.992Z,100789.27
2022-08-03T05:56:17.901Z,100791.52
2022-08-03T05:58:47.715Z,100795.01
2022-08-03T06:01:17.610Z,100788.98
2022-08-03T06:03:46.323Z,100791.93
2022-08-03T06:06:15.000Z,100793.83
2022-08-03T06:08:44.123Z,100799.82
2022-08-03T06:11:13.161Z,100802.27
2022-08-03T06:13:41.557Z,100803.57
2022-08-03T06:16:10.171Z,100804.11
2022-08-03T06:18:39.046Z,100807.79
2022-08-03T06:21:14.098Z,100809.13
2022-08-03T06:23:53.809Z,100806.93
2022-08-03T06:26:26.529Z,100802.73
2022-08-03T06:28:56.877Z,100800.30
2022-08-03T06:31:33.450Z,100791.92
2022-08-03T06:34:33.749Z,100790.86
2022-08-03T06:36:58.587Z,100791.67
2022-08-03T06:39:30.135Z,100795.02
2022-08-03T06:41:58.189Z,100792.84
2022-08-03T06:44:26.129Z,100792.58
2022-08-03T06:46:54.068Z,100795.50
2022-08-03T06:49:22.025Z,100794.19
2022-08-03T06:52:05.871Z,100796.23
2022-08-03T06:54:36.003Z,100801.64
2022-08-03T06:57:05.347Z,100805.48
2022-08-03T07:00:07.446Z,100806.08
2022-08-03T07:02:21.749Z,100803.59
2022-08-03T07:04:50.379Z,100800.16
2022-08-03T07:07:19.232Z,100797.69
2022-08-03T07:09:56.388Z,100798.66
2022-08-03T07:12:28.201Z,100798.77
2022-08-03T07:15:01.253Z,100794.98
2022-08-03T07:17:33.252Z,100794.46
2022-08-03T07:20:04.365Z,100797.48
2022-08-03T07:22:32.585Z,100801.36
2022-08-03T07:25:01.039Z,100804.50
2022-08-03T07:27:29.568Z,100802.17
2022-08-03T07:29:58.721Z,100803.99
2022-08-03T07:32:28.434Z,100801.85
2022-08-03T07:35:00.620Z,100805.05
2022-08-03T07:37:30.829Z,100802.24
2022-08-03T07:40:00.886Z,100802.63
2022-08-03T07:42:29.633Z,100798.71
2022-08-03T07:44:59.150Z,100797.95
2022-08-03T07:47:35.317Z,100796.69
2022-08-03T07:50:06.568Z,100798.09
2022-08-03T07:52:49.588Z,100797.98
2022-08-03T07:55:23.922Z,100795.83
2022-08-03T07:58:05.304Z,100796.39
2022-08-03T08:00:34.018Z,100795.23
2022-08-03T08:03:02.881Z,100789.50
2022-08-03T08:05:31.551Z,100793.77
2022-08-03T08:08:01.463Z,100785.00
2022-08-03T08:10:30.219Z,100793.14
2022-08-03T08:13:00.881Z,100794.23
2022-08-03T08:15:28.697Z,100791.31
2022-08-03T08:18:00.922Z,100793.55
2022-08-03T08:20:38.153Z,100795.54
2022-08-03T08:23:12.166Z,100794.59
2022-08-03T08:25:56.873Z,100790.04
2022-08-03T08:28:31.874Z,100790.80
2022-08-03T08:31:02.180Z,100791.95
2022-08-03T08:33:48.290Z,100791.27
2022-08-03T08:36:18.720Z,100789.60
2022-08-03T08:38:46.589Z,100791.51
2022-08-03T08:41:16.104Z,100784.89
2022-08-03T08:43:44.023Z,100785.91
2022-08-03T08:46:23.286Z,100786.15
2022-08-03T08:48:54.007Z,100784.85
2022-08-03T08:51:54.888Z,100782.17
2022-08-03T08:54:17.974Z,100784.78
2022-08-03T08:56:46.556Z,100784.61
2022-08-03T08:59:15.138Z,100785.60
2022-08-03T09:01:42.975Z,100781.04
2022-08-03T09:04:12.385Z,100778.67
2022-08-03T09:06:40.136Z,100779.85
2022-08-03T09:09:08.354Z,100777.54
2022-08-03T09:11:51.753Z,100782.85
2022-08-03T09:14:35.203Z,100781.32
2022-08-03T09:17:10.093Z,100785.28
2022-08-03T09:20:05.982Z,100783.14
2022-08-03T09:22:34.064Z,100783.34
2022-08-03T09:25:23.848Z,100782.33
2022-08-03T09:27:52.426Z,100779.25
2022-08-03T09:30:34.235Z,100776.04
2022-08-03T09:33:08.791Z,100778.38
2022-08-03T09:35:58.113Z,100775.84
2022-08-03T09:38:26.351Z,100770.30
2022-08-03T09:41:00.282Z,100771.48
2022-08-03T09:43:29.325Z,100773.48
2022-08-03T09:46:05.426Z,100771.17
2022-08-03T09:48:37.245Z,100766.70
2022-08-03T09:51:32.306Z,100764.94
2022-08-03T09:53:58.904Z,100757.77
2022-08-03T09:56:46.771Z,100757.70
2022-08-03T09:59:31.394Z,100755.74
2022-08-03T10:02:02.567Z,100758.46
2022-08-03T10:04:30.601Z,100757.21
2022-08-03T10:07:06.845Z,100754.79
2022-08-03T10:09:35.697Z,100759.48
2022-08-03T10:12:14.171Z,100758.30
2022-08-03T10:14:45.368Z,100760.75
2022-08-03T10:17:13.698Z,100758.41
2022-08-03T10:19:41.824Z,100758.42
2022-08-03T10:22:24.542Z,100756.36
2022-08-03T10:25:13.627Z,100752.33
2022-08-03T10:27:45.702Z,100747.14
2022-08-03T10:30:14.381Z,100747.33
2022-08-03T10:32:55.278Z,100740.00
2022-08-03T10:35:25.156Z,100747.43
2022-08-03T10:38:01.757Z,100739.25
2022-08-03T10:40:47.914Z,100736.51
2022-08-03T10:43:32.745Z,100737.09
2022-08-03T10:46:03.309Z,100736.61
2022-08-03T10:48:31.811Z,100740.89
2022-08-03T10:50:59.810Z,100742.88
2022-08-03T10:53:54.884Z,100740.95
2022-08-03T10:56:51.786Z,100736.23
2022-08-03T10:59:40.545Z,100728.98
2022-08-03T11:02:09.927Z,100731.33
2022-08-03T11:04:37.942Z,100731.90
2022-08-03T11:07:25.646Z,100730.56
2022-08-03T11:09:56.151Z,100730.89
2022-08-03T11:12:33.019Z,100731.58
2022-08-03T11:15:08.553Z,100726.96
2022-08-03T11:17:46.660Z,100726.98
2022-08-03T11:20:52.244Z,100717.00
2022-08-03T11:24:03.105Z,100723.79
2022-08-03T11:26:29.836Z,100726.70
2022-08-03T11:29:28.931Z,100721.31
2022-08-03T11:31:57.203Z,100717.06
2022-08-03T11:34:25.900Z,100711.41
2022-08-03T11:37:22.360Z,100709.13
2022-08-03T11:39:54.767Z,100714.30
2022-08-03T11:42:22.950Z,100706.16
2022-08-03T11:44:53.125Z,100704.77
2022-08-03T11:47:22.858Z,100707.58
2022-08-03T11:49:54.563Z,100707.13
2022-08-03T11:52:26.940Z,100698.48
2022-08-03T11:54:57.046Z,100699.73
2022-08-03T11:59:01.028Z,100699.20
2022-08-03T12:00:30.683Z,100692.04
2022-08-03T12:03:04.425Z,100691.35
2022-08-03T12:05:51.335Z,100694.85
2022-08-03T12:08:33.607Z,100698.23
2022-08-03T12:11:06.533Z,100694.36
2022-08-03T12:14:10.662Z,100693.82
2022-08-03T12:16:33.209Z,100693.92
2022-08-03T12:19:09.420Z,100690.02
2022-08-03T12:21:56.830Z,100682.44
2022-08-03T12:24:28.513Z,100685.61
2022-08-03T12:27:00.015Z,100678.18
2022-08-03T12:29:28.388Z,100671.81
2022-08-03T12:31:56.618Z,100675.34
2022-08-03T12:34:24.700Z,100674.44
2022-08-03T12:36:59.622Z,100670.36
2022-08-03T12:39:31.025Z,100666.94
2022-08-03T12:41:59.405Z,100669.41
2022-08-03T12:44:33.715Z,100666.06
2022-08-03T12:47:04.543Z,100666.19
2022-08-03T12:49:49.940Z,100657.34
2022-08-03T12:52:21.933Z,100656.83
2022-08-03T12:54:58.906Z,100658.02
2022-08-03T12:57:42.856Z,100651.55
2022-08-03T13:00:21.554Z,100648.85
2022-08-03T13:05:57.447Z,100647.80
2022-08-03T13:08:25.750Z,100650.34
2022-08-03T13:10:53.605Z,100653.95
2022-08-03T13:13:40.922Z,100651.02
2022-08-03T13:16:08.737Z,100653.77
2022-08-03T13:18:36.486Z,100645.98
2022-08-03T13:21:05.949Z,100641.31
2022-08-03T13:23:34.361Z,100642.67
2022-08-03T13:26:02.080Z,100642.90
2022-08-03T13:28:29.906Z,100643.02
2022-08-03T13:30:57.679Z,100645.30
2022-08-03T13:33:28.546Z,100645.63
2022-08-03T13:35:56.804Z,100646.89
2022-08-03T13:38:27.222Z,100645.36
2022-08-03T13:40:56.357Z,100643.30
2022-08-03T13:43:24.234Z,100638.38
2022-08-03T13:45:56.510Z,100640.90
2022-08-03T13:48:36.101Z,100638.20
2022-08-03T13:51:22.187Z,100631.98
2022-08-03T13:53:53.454Z,100629.00
2022-08-03T13:56:21.332Z,100623.79
2022-08-03T13:58:49.328Z,100621.66
2022-08-03T14:01:18.580Z,100623.17
2022-08-03T14:03:54.946Z,100619.02
2022-08-03T14:06:24.499Z,100616.08
2022-08-03T14:08:52.536Z,100614.63
2022-08-03T14:11:20.334Z,100612.73
2022-08-03T14:13:48.636Z,100610.59
2022-08-03T14:16:17.011Z,100614.05
2022-08-03T14:18:45.891Z,100609.11
2022-08-03T14:21:14.305Z,100609.42
2022-08-03T14:23:42.075Z,100607.88
2022-08-03T14:26:10.446Z,100606.58
2022-08-03T14:28:38.359Z,100606.67
2022-08-03T14:31:08.177Z,100602.33
2022-08-03T14:33:43.308Z,100598.39
2022-08-03T14:36:11.195Z,100601.73
2022-08-03T14:38:39.007Z,100599.69
2022-08-03T14:41:07.186Z,100598.05
2022-08-03T14:43:40.303Z,100601.33
2022-08-03T14:46:28.211Z,100598.29
2022-08-03T14:50:29.466Z,100602.79
2022-08-03T14:51:51.354Z,100591.40
2022-08-03T14:54:22.887Z,100588.41
2022-08-03T14:56:51.360Z,100588.59
2022-08-03T14:59:19.208Z,100583.66
2022-08-03T15:02:06.364Z,100580.26
2022-08-03T15:04:34.763Z,100584.83
2022-08-03T15:07:02.999Z,100581.89
2022-08-03T15:09:31.158Z,100583.70
2022-08-03T15:11:59.818Z,100577.19
2022-08-03T15:14:32.285Z,100573.81
2022-08-03T15:17:01.188Z,100578.02
2022-08-03T15:20:02.895Z,100575.70
2022-08-03T15:22:20.466Z,100576.14
2022-08-03T15:24:48.818Z,100574.35
2022-08-03T15:27:16.665Z,100567.92
2022-08-03T15:30:07.624Z,100568.27
2022-08-03T15:32:35.311Z,100566.77
2022-08-03T15:35:03.311Z,100567.64
2022-08-03T15:37:31.114Z,100568.05
2022-08-03T15:40:00.806Z,100564.52
2022-08-03T15:42:32.408Z,100563.70
2022-08-03T15:45:00.462Z,100565.48
2022-08-03T15:47:29.467Z,100571.63
2022-08-03T15:49:57.315Z,100564.74
2022-08-03T15:52:25.376Z,100566.52
2022-08-03T15:54:53.388Z,100560.35
2022-08-03T15:57:21.277Z,100561.84
2022-08-03T15:59:49.386Z,100565.08
2022-08-03T16:02:17.211Z,100562.05
2022-08-03T16:04:45.094Z,100563.91
2022-08-03T16:07:15.810Z,100561.08
2022-08-03T16:09:44.213Z,100558.03
2022-08-03T16:12:16.181Z,100556.18
2022-08-03T16:14:53.808Z,100552.05
2022-08-03T16:17:23.547Z,100552.16
2022-08-03T16:19:52.260Z,100553.52
2022-08-03T16:22:24.653Z,100557.09
2022-08-03T16:24:54.511Z,100549.41
2022-08-03T16:27:37.342Z,100550.95
2022-08-03T16:30:16.056Z,100550.91
2022-08-03T16:32:45.234Z,100547.23
2022-08-03T16:35:19.685Z,100551.62
2022-08-03T16:37:54.566Z,100550.92
2022-08-03T16:40:25.954Z,100547.98
2022-08-03T16:42:54.064Z,100545.86
2022-08-03T16:45:22.103Z,100548.64
2022-08-03T16:48:01.467Z,100550.35
2022-08-03T16:50:35.326Z,100551.42
2022-08-03T16:53:09.871Z,100546.41
2022-08-03T16:55:48.477Z,100546.48
2022-08-03T16:58:34.432Z,100549.22
2022-08-03T17:01:22.445Z,100553.13
2022-08-03T17:04:03.258Z,100551.89
2022-08-03T17:06:44.629Z,100552.14
2022-08-03T17:09:17.988Z,100547.55
2022-08-03T17:11:50.141Z,100551.09
2022-08-03T17:14:28.470Z,100553.06
2022-08-03T17:17:03.896Z,100558.08
2022-08-03T17:19:36.250Z,100561.97
2022-08-03T17:22:31.222Z,100564.08
2022-08-03T17:25:07.667Z,100561.50
2022-08-03T17:28:49.608Z,100562.38
2022-08-03T17:30:46.212Z,100562.16
2022-08-03T17:33:20.541Z,100563.29
2022-08-03T17:35:53.250Z,100563.09
2022-08-03T17:38:24.951Z,100562.92
2022-08-03T17:40:57.172Z,100568.27
2022-08-03T17:44:13.313Z,100565.73
2022-08-03T17:46:14.179Z,100563.41
2022-08-03T17:48:47.982Z,100567.08
2022-08-03T17:51:46.560Z,100571.31
2022-08-03T17:54:33.395Z,100572.96
2022-08-03T17:58:02.438Z,100572.19
2022-08-03T18:00:45.485Z,100567.66
2022-08-03T18:03:58.942Z,100568.74
2022-08-03T18:06:36.863Z,100569.46
2022-08-03T18:10:06.159Z,100571.04
2022-08-03T18:12:01.571Z,100571.65
2022-08-03T18:14:57.252Z,100566.80
2022-08-03T18:20:32.912Z,100576.41
2022-08-03T18:23:24.958Z,100574.13
2022-08-03T18:26:04.699Z,100580.05
2022-08-03T18:28:35.817Z,100577.84
2022-08-03T18:34:19.775Z,100581.95
2022-08-03T18:36:48.705Z,100586.71
2022-08-03T18:39:19.707Z,100586.68
2022-08-03T18:41:47.733Z,100588.92
2022-08-03T18:44:37.566Z,100589.16
2022-08-03T18:47:50.901Z,100589.23
2022-08-03T18:50:40.979Z,100594.70
2022-08-03T18:54:02.183Z,100596.31
2022-08-03T18:56:51.285Z,100601.17
2022-08-03T18:59:33.912Z,100602.00
2022-08-03T19:02:20.678Z,100603.37
2022-08-03T19:04:54.055Z,100607.09
2022-08-03T19:07:27.608Z,100610.86
2022-08-03T19:10:10.366Z,100611.35
2022-08-03T19:13:09.637Z,100611.52
2022-08-03T19:15:51.278Z,100611.21
2022-08-03T19:18:21.881Z,100611.59
2022-08-03T19:20:56.241Z,100618.66
2022-08-03T19:23:26.044Z,100620.34
2022-08-03T19:26:03.472Z,100616.73
2022-08-03T19:28:33.089Z,100617.32
2022-08-03T19:31:02.650Z,100615.55
2022-08-03T19:33:31.507Z,100616.35
2022-08-03T19:36:25.685Z,100616.59
2022-08-03T19:38:57.146Z,100614.64
2022-08-03T19:41:41.971Z,100612.30
2022-08-03T19:44:20.242Z,100616.23
2022-08-03T19:47:02.073Z,100620.38
2022-08-03T19:49:56.982Z,100620.38
2022-08-03T19:52:31.345Z,100616.31
2022-08-03T19:55:18.560Z,100619.88
2022-08-03T19:57:49.355Z,100620.08
2022-08-03T20:00:20.059Z,100619.98
2022-08-03T20:02:55.877Z,100618.15
2022-08-03T20:05:25.995Z,100620.17
2022-08-03T20:07:57.332Z,100619.22
2022-08-03T20:10:27.059Z,100620.88
2022-08-03T20:12:56.172Z,100622.69
2022-08-03T20:15:31.059Z,100622.92
2022-08-03T20:18:00.240Z,100627.05
2022-08-03T20:20:32.769Z,100627.94
2022-08-03T20:23:06.986Z,100627.09
2022-08-03T20:25:57.198Z,100627.27
2022-08-03T20:29:00.460Z,100627.77
2022-08-03T20:31:38.143Z,100627.11
2022-08-03T20:34:07.007Z,100627.61
2022-08-03T20:36:37.265Z,100628.84
2022-08-03T20:39:07.423Z,100625.97
2022-08-03T20:41:36.036Z,100626.52
2022-08-03T20:44:05.696Z,100629.82
2022-08-03T20:46:50.323Z,100628.95
2022-08-03T20:49:23.369Z,100630.22
2022-08-03T20:51:53.139Z,100634.72
2022-08-03T20:54:30.408Z,100638.63
2022-08-03T20:57:04.301Z,100636.90
2022-08-03T20:59:50.014Z,100640.40
2022-08-03T21:02:30.095Z,100643.27
2022-08-03T21:05:03.814Z,100645.91
2022-08-03T21:08:06.315Z,100644.29
2022-08-03T21:10:39.724Z,100646.41
2022-08-03T21:13:04.521Z,100582.66
2022-08-03T21:13:04.918Z,100576.99
2022-08-03T21:16:11.284Z,100643.61
2022-08-03T21:18:50.209Z,100645.28
2022-08-03T21:21:21.455Z,100644.63
2022-08-03T21:23:55.235Z,100645.17
2022-08-03T21:26:27.018Z,100645.45
2022-08-03T21:28:57.028Z,100644.90
2022-08-03T21:31:26.767Z,100645.45
2022-08-03T21:33:59.626Z,100644.73
2022-08-03T21:36:30.931Z,100644.48
2022-08-03T21:38:59.727Z,100650.61
2022-08-03T21:41:32.037Z,100653.08
2022-08-03T21:44:02.062Z,100652.88
2022-08-03T21:46:36.000Z,100653.42
2022-08-03T21:50:04.348Z,100652.85
2022-08-03T21:52:00.488Z,100650.98
2022-08-03T21:54:40.162Z,100655.01
2022-08-03T21:57:23.359Z,100650.67
2022-08-03T21:59:56.566Z,100657.91
2022-08-03T22:02:30.111Z,100656.44
2022-08-03T22:05:00.224Z,100655.07
2022-08-03T22:07:33.659Z,100657.26
2022-08-03T22:10:04.045Z,100657.02
2022-08-03T22:12:33.422Z,100656.71
2022-08-03T22:15:05.905Z,100658.08
2022-08-03T22:17:54.771Z,100659.70
2022-08-03T22:20:25.457Z,100657.65
2022-08-03T22:22:57.244Z,100660.83
2022-08-03T22:25:31.698Z,100657.05
2022-08-03T22:28:03.941Z,100661.09
2022-08-03T22:30:33.283Z,100658.99
2022-08-03T22:33:04.812Z,100658.52
2022-08-03T22:35:47.357Z,100662.82
2022-08-03T22:38:18.122Z,100664.53
2022-08-03T22:40:50.799Z,100668.29
2022-08-03T22:43:26.519Z,100670.20
2022-08-03T22:46:09.743Z,100671.02
2022-08-03T22:48:41.362Z,100668.82
2022-08-03T22:51:10.341Z,100673.27
2022-08-03T22:53:39.456Z,100673.09
2022-08-03T22:56:07.837Z,100672.65
2022-08-03T22:58:35.729Z,100679.38
2022-08-03T23:01:11.767Z,100681.95
2022-08-03T23:04:00.310Z,100681.30
2022-08-03T23:06:37.632Z,100682.42
2022-08-03T23:09:12.111Z,100682.27
2022-08-03T23:11:45.591Z,100679.59
2022-08-03T23:14:18.395Z,100682.55
2022-08-03T23:16:50.366Z,100684.28
2022-08-03T23:19:25.549Z,100690.10
2022-08-03T23:22:03.188Z,100690.13
2022-08-03T23:24:36.327Z,100691.73
2022-08-03T23:27:08.229Z,100691.48
2022-08-03T23:29:38.414Z,100694.00
2022-08-03T23:32:07.165Z,100690.45
2022-08-03T23:34:57.045Z,100692.17
2022-08-03T23:37:26.178Z,100693.20
2022-08-03T23:39:56.802Z,100692.46
2022-08-03T23:42:25.701Z,100689.87
2022-08-03T23:44:59.302Z,100686.56
2022-08-03T23:47:46.853Z,100687.37
2022-08-03T23:50:15.884Z,100691.95
2022-08-03T23:53:23.400Z,100693.13
2022-08-03T23:56:29.468Z,100691.57
2022-08-03T23:59:14.531Z,100692.89
